createdAt,value
2018-09-13T00:00:06.529Z,67.78
2018-09-13T00:02:37.516Z,67.97
2018-09-13T00:05:08.531Z,67.94
2018-09-13T00:07:39.668Z,68.12
2018-09-13T00:10:10.561Z,68.23
2018-09-13T00:12:41.521Z,67.95
2018-09-13T00:15:12.476Z,68.21
2018-09-13T00:17:43.510Z,68.18
2018-09-13T00:20:14.482Z,68.84
2018-09-13T00:22:45.512Z,69.13
2018-09-13T00:25:16.472Z,68.99
2018-09-13T00:27:47.572Z,68.45
2018-09-13T00:30:18.513Z,68.57
2018-09-13T00:32:49.524Z,68.81
2018-09-13T00:35:20.477Z,68.68
2018-09-13T00:37:51.529Z,69.34
2018-09-13T00:40:22.497Z,68.37
2018-09-13T00:42:53.498Z,69.40
2018-09-13T00:45:24.502Z,69.08
2018-09-13T00:47:55.513Z,69.34
2018-09-13T00:50:26.497Z,68.89
2018-09-13T00:52:57.489Z,69.15
2018-09-13T00:55:28.489Z,69.12
2018-09-13T00:57:59.582Z,69.05
2018-09-13T01:00:30.517Z,69.33
2018-09-13T01:03:01.501Z,69.43
2018-09-13T01:05:32.482Z,69.92
2018-09-13T01:08:03.618Z,69.25
2018-09-13T01:10:34.537Z,69.90
2018-09-13T01:13:05.506Z,69.53
2018-09-13T01:15:36.513Z,69.13
2018-09-13T01:18:07.501Z,69.62
2018-09-13T01:20:38.494Z,69.46
2018-09-13T01:23:09.542Z,69.64
2018-09-13T01:25:40.519Z,69.62
2018-09-13T01:28:11.519Z,70.20
2018-09-13T01:30:42.492Z,69.73
2018-09-13T01:33:13.505Z,70.20
2018-09-13T01:35:44.546Z,70.25
2018-09-13T01:38:15.511Z,70.35
2018-09-13T01:40:46.530Z,69.80
2018-09-13T01:43:17.497Z,70.35
2018-09-13T01:45:48.481Z,69.68
2018-09-13T01:48:19.599Z,70.35
2018-09-13T01:50:50.498Z,70.02
2018-09-13T01:53:21.523Z,70.29
2018-09-13T01:55:52.514Z,69.79
2018-09-13T01:58:24.010Z,70.07
2018-09-13T02:00:55.455Z,70.26
2018-09-13T02:03:26.550Z,70.44
2018-09-13T02:05:57.498Z,70.16
2018-09-13T02:08:28.505Z,70.04
2018-09-13T02:10:59.498Z,70.03
2018-09-13T02:13:30.532Z,69.96
2018-09-13T02:16:01.526Z,69.94
2018-09-13T02:18:32.558Z,70.45
2018-09-13T02:21:03.525Z,70.26
2018-09-13T02:23:34.505Z,70.36
2018-09-13T02:26:05.497Z,70.87
2018-09-13T02:31:53.548Z,70.58
2018-09-13T02:34:24.510Z,70.29
2018-09-13T02:36:55.481Z,70.73
2018-09-13T02:39:26.517Z,70.83
2018-09-13T02:41:57.498Z,70.98
2018-09-13T02:44:28.497Z,70.69
2018-09-13T02:46:59.521Z,70.74
2018-09-13T02:49:30.515Z,71.12
2018-09-13T02:52:01.654Z,70.63
2018-09-13T02:54:32.552Z,70.87
2018-09-13T02:57:03.518Z,70.59
2018-09-13T02:59:34.529Z,70.76
2018-09-13T03:02:05.496Z,70.50
2018-09-13T03:04:36.533Z,70.62
2018-09-13T03:07:07.492Z,70.46
2018-09-13T03:09:38.518Z,70.95
2018-09-13T03:12:09.493Z,71.03
2018-09-13T03:14:40.533Z,71.34
2018-09-13T03:17:11.527Z,71.14
2018-09-13T03:19:42.485Z,71.47
2018-09-13T03:22:13.476Z,70.64
2018-09-13T03:24:44.481Z,70.92
2018-09-13T03:27:15.534Z,71.14
2018-09-13T03:29:46.560Z,71.75
2018-09-13T03:32:17.498Z,71.07
2018-09-13T03:34:48.634Z,71.35
2018-09-13T03:37:19.541Z,71.39
2018-09-13T03:39:50.555Z,70.91
2018-09-13T03:42:21.478Z,70.48
2018-09-13T03:44:52.518Z,71.04
2018-09-13T03:47:23.488Z,70.54
2018-09-13T03:49:54.559Z,70.67
2018-09-13T03:52:25.490Z,70.69
2018-09-13T03:54:56.515Z,71.15
2018-09-13T03:57:27.522Z,70.86
2018-09-13T03:59:58.503Z,70.62
2018-09-13T04:02:30.371Z,70.54
2018-09-13T04:05:01.512Z,71.13
2018-09-13T04:07:32.485Z,70.03
2018-09-13T04:10:03.550Z,70.46
2018-09-13T04:12:34.551Z,70.81
2018-09-13T04:15:05.691Z,70.22
2018-09-13T04:17:36.586Z,70.70
2018-09-13T04:20:07.489Z,71.08
2018-09-13T04:22:38.536Z,70.37
2018-09-13T04:25:09.493Z,70.49
2018-09-13T04:27:40.512Z,70.49
2018-09-13T04:30:11.477Z,70.76
2018-09-13T04:32:42.485Z,70.28
2018-09-13T04:35:13.503Z,70.31
2018-09-13T04:37:44.598Z,70.25
2018-09-13T04:40:15.554Z,70.95
2018-09-13T04:42:46.501Z,70.44
2018-09-13T04:45:17.496Z,70.30
2018-09-13T04:47:48.569Z,70.57
2018-09-13T04:50:19.513Z,70.06
2018-09-13T04:52:50.505Z,70.49
2018-09-13T04:55:21.558Z,70.83
2018-09-13T04:57:52.555Z,70.44
2018-09-13T05:00:23.591Z,70.33
2018-09-13T05:02:54.519Z,72.07
2018-09-13T05:05:25.537Z,70.98
2018-09-13T05:07:56.513Z,70.82
2018-09-13T05:10:27.514Z,70.62
2018-09-13T05:12:58.577Z,70.49
2018-09-13T05:15:29.506Z,70.49
2018-09-13T05:18:00.481Z,70.98
2018-09-13T05:20:31.489Z,70.58
2018-09-13T05:23:02.499Z,70.83
2018-09-13T05:25:33.527Z,70.74
2018-09-13T05:28:04.533Z,70.56
2018-09-13T05:30:35.534Z,71.01
2018-09-13T05:33:07.026Z,71.47
2018-09-13T05:35:38.290Z,70.95
2018-09-13T05:38:09.363Z,71.13
2018-09-13T05:40:40.493Z,70.89
2018-09-13T05:43:11.501Z,70.52
2018-09-13T05:45:42.496Z,70.90
2018-09-13T05:48:13.597Z,71.82
2018-09-13T05:50:44.655Z,70.78
2018-09-13T05:53:15.583Z,70.85
2018-09-13T05:55:46.550Z,70.98
2018-09-13T05:58:17.503Z,70.65
2018-09-13T06:00:48.604Z,70.58
2018-09-13T06:03:19.498Z,71.09
2018-09-13T06:05:51.001Z,70.47
2018-09-13T06:08:22.317Z,70.44
2018-09-13T06:10:53.405Z,69.84
2018-09-13T06:13:24.574Z,70.07
2018-09-13T06:15:55.481Z,70.69
2018-09-13T06:18:26.493Z,70.85
2018-09-13T06:20:57.481Z,69.74
2018-09-13T06:23:28.476Z,70.24
2018-09-13T06:25:59.516Z,70.40
2018-09-13T06:28:30.482Z,70.18
2018-09-13T06:31:01.477Z,70.14
2018-09-13T06:33:32.486Z,70.60
2018-09-13T06:36:03.472Z,69.44
2018-09-13T06:38:34.469Z,68.82
2018-09-13T06:41:05.527Z,68.60
2018-09-13T06:43:36.482Z,68.21
2018-09-13T06:46:07.477Z,68.63
2018-09-13T06:48:38.571Z,67.29
2018-09-13T06:51:09.510Z,67.92
2018-09-13T06:53:40.546Z,68.01
2018-09-13T06:56:11.514Z,67.45
2018-09-13T06:58:42.502Z,67.59
2018-09-13T07:01:13.489Z,68.12
2018-09-13T07:03:44.485Z,67.33
2018-09-13T07:06:15.496Z,67.79
2018-09-13T07:08:46.627Z,67.84
2018-09-13T07:11:17.519Z,67.94
2018-09-13T07:13:48.579Z,67.22
2018-09-13T07:16:19.641Z,67.59
2018-09-13T07:18:50.797Z,66.86
2018-09-13T07:21:21.633Z,67.42
2018-09-13T07:23:52.490Z,66.37
2018-09-13T07:26:23.509Z,66.18
2018-09-13T07:28:54.489Z,67.02
2018-09-13T07:31:25.521Z,66.96
2018-09-13T07:33:56.533Z,66.53
2018-09-13T07:36:27.522Z,66.14
2018-09-13T07:38:59.022Z,66.77
2018-09-13T07:41:30.374Z,67.03
2018-09-13T07:44:01.506Z,66.44
2018-09-13T07:46:32.507Z,66.08
2018-09-13T07:49:03.584Z,66.21
2018-09-13T07:51:34.501Z,66.60
2018-09-13T07:54:05.517Z,66.02
2018-09-13T07:56:36.567Z,66.32
2018-09-13T07:59:08.213Z,65.80
2018-09-13T08:01:40.294Z,65.58
2018-09-13T08:04:11.377Z,64.91
2018-09-13T08:06:42.493Z,64.94
2018-09-13T08:09:15.221Z,64.45
2018-09-13T08:11:46.389Z,63.67
2018-09-13T08:14:17.490Z,63.83
2018-09-13T08:16:48.498Z,63.56
2018-09-13T08:19:19.481Z,63.38
2018-09-13T08:21:50.746Z,62.51
2018-09-13T08:24:21.501Z,62.70
2018-09-13T08:26:52.503Z,63.71
2018-09-13T08:29:23.457Z,62.60
2018-09-13T08:31:54.525Z,61.69
2018-09-13T08:34:25.494Z,61.78
2018-09-13T08:36:56.525Z,62.13
2018-09-13T08:39:27.469Z,61.46
2018-09-13T08:41:58.537Z,61.34
2018-09-13T08:44:29.502Z,61.19
2018-09-13T08:47:00.505Z,61.38
2018-09-13T08:49:31.454Z,61.69
2018-09-13T08:52:02.586Z,60.99
2018-09-13T08:54:33.541Z,62.14
2018-09-13T08:57:04.545Z,62.38
2018-09-13T08:59:35.525Z,61.78
2018-09-13T09:02:06.538Z,62.23
2018-09-13T09:04:37.469Z,62.16
2018-09-13T09:07:08.548Z,61.65
2018-09-13T09:09:39.530Z,62.60
2018-09-13T09:12:10.497Z,62.26
2018-09-13T09:14:41.464Z,61.64
2018-09-13T09:17:12.615Z,62.84
2018-09-13T09:19:43.483Z,62.37
2018-09-13T09:22:14.494Z,62.40
2018-09-13T09:24:45.464Z,62.83
2018-09-13T09:27:16.537Z,62.74
2018-09-13T09:29:47.554Z,61.56
2018-09-13T09:32:18.509Z,62.59
2018-09-13T09:34:49.548Z,61.66
2018-09-13T09:37:20.528Z,61.13
2018-09-13T09:39:51.510Z,61.92
2018-09-13T09:42:22.509Z,63.09
2018-09-13T09:44:53.505Z,62.45
2018-09-13T09:47:24.514Z,62.43
2018-09-13T09:49:55.535Z,63.03
2018-09-13T09:52:26.555Z,62.80
2018-09-13T09:54:59.214Z,62.55
2018-09-13T09:57:30.394Z,62.21
2018-09-13T10:00:01.482Z,62.20
2018-09-13T10:02:32.514Z,61.74
2018-09-13T10:05:03.490Z,62.58
2018-09-13T10:07:34.509Z,62.40
2018-09-13T10:10:05.548Z,62.86
2018-09-13T10:12:36.524Z,62.37
2018-09-13T10:15:12.863Z,62.74
2018-09-13T10:17:48.749Z,62.85
2018-09-13T10:20:24.740Z,62.27
2018-09-13T10:23:00.713Z,63.77
2018-09-13T10:25:36.610Z,64.37
2018-09-13T10:28:12.760Z,63.95
2018-09-13T10:30:48.722Z,63.94
2018-09-13T10:33:24.565Z,65.18
2018-09-13T10:36:00.857Z,63.93
2018-09-13T10:41:23.496Z,64.81
2018-09-13T10:44:59.348Z,64.81
2018-09-13T10:47:35.556Z,64.30
2018-09-13T10:50:11.769Z,64.98
2018-09-13T10:52:44.513Z,64.62
2018-09-13T10:55:15.520Z,64.11
2018-09-13T10:57:46.505Z,64.82
2018-09-13T11:00:17.493Z,63.52
2018-09-13T11:02:48.503Z,63.85
2018-09-13T11:05:19.498Z,64.90
2018-09-13T11:07:50.502Z,63.58
2018-09-13T11:10:21.483Z,64.10
2018-09-13T11:12:57.749Z,62.52
2018-09-13T11:15:35.460Z,63.54
2018-09-13T11:18:07.606Z,62.31
2018-09-13T11:20:38.556Z,60.99
2018-09-13T11:23:09.530Z,61.00
2018-09-13T11:25:40.510Z,61.79
2018-09-13T11:28:11.498Z,62.32
2018-09-13T11:30:42.552Z,61.41
2018-09-13T11:33:13.518Z,61.61
2018-09-13T11:35:44.509Z,61.48
2018-09-13T11:38:15.513Z,61.40
2018-09-13T11:40:46.815Z,61.08
2018-09-13T11:43:17.521Z,61.09
2018-09-13T11:45:48.554Z,60.86
2018-09-13T11:48:19.491Z,59.91
2018-09-13T11:50:50.545Z,60.05
2018-09-13T11:53:21.497Z,60.50
2018-09-13T11:55:52.511Z,60.19
2018-09-13T11:58:23.507Z,60.73
2018-09-13T12:00:54.489Z,59.11
2018-09-13T12:03:25.481Z,59.05
2018-09-13T12:05:56.489Z,59.92
2018-09-13T12:08:27.611Z,58.11
2018-09-13T12:10:58.561Z,59.23
2018-09-13T12:13:29.530Z,59.91
2018-09-13T12:16:00.509Z,59.82
2018-09-13T12:18:31.581Z,59.58
2018-09-13T12:21:02.518Z,58.57
2018-09-13T12:23:33.531Z,58.76
2018-09-13T12:26:04.538Z,59.57
2018-09-13T12:28:35.497Z,59.63
2018-09-13T12:31:06.645Z,59.88
2018-09-13T12:33:37.504Z,60.05
2018-09-13T12:36:08.702Z,58.55
2018-09-13T12:38:39.576Z,59.53
2018-09-13T12:41:10.521Z,59.13
2018-09-13T12:43:41.503Z,59.58
2018-09-13T12:46:12.513Z,58.60
2018-09-13T12:48:43.501Z,59.11
2018-09-13T12:51:14.482Z,60.37
2018-09-13T12:53:45.651Z,58.07
2018-09-13T12:56:16.557Z,58.93
2018-09-13T12:58:47.503Z,59.45
2018-09-13T13:01:18.512Z,60.68
2018-09-13T13:03:49.726Z,60.47
2018-09-13T13:06:20.597Z,61.72
2018-09-13T13:08:51.681Z,61.62
2018-09-13T13:11:22.518Z,61.41
2018-09-13T13:13:53.522Z,61.35
2018-09-13T13:16:24.559Z,61.54
2018-09-13T13:18:55.490Z,61.17
2018-09-13T13:21:26.505Z,61.05
2018-09-13T13:23:57.493Z,61.88
2018-09-13T13:26:28.557Z,62.69
2018-09-13T13:28:59.489Z,62.78
2018-09-13T13:31:30.534Z,62.35
2018-09-13T13:34:01.497Z,62.45
2018-09-13T13:36:32.507Z,63.17
2018-09-13T13:39:03.566Z,63.44
2018-09-13T13:41:34.546Z,62.77
2018-09-13T13:44:05.616Z,63.16
2018-09-13T13:46:36.506Z,62.74
2018-09-13T13:49:07.510Z,62.29
2018-09-13T13:51:38.520Z,62.49
2018-09-13T13:54:09.486Z,62.70
2018-09-13T13:56:40.481Z,61.32
2018-09-13T13:59:11.471Z,62.80
2018-09-13T14:01:42.457Z,62.41
2018-09-13T14:04:13.425Z,62.43
2018-09-13T14:06:44.455Z,61.57
2018-09-13T14:09:15.485Z,61.90
2018-09-13T14:11:46.520Z,62.03
2018-09-13T14:14:17.514Z,61.51
2018-09-13T14:16:48.497Z,62.15
2018-09-13T14:19:19.512Z,61.50
2018-09-13T14:21:50.570Z,61.73
2018-09-13T14:24:21.499Z,62.43
2018-09-13T14:26:52.508Z,61.89
2018-09-13T14:29:23.531Z,61.20
2018-09-13T14:31:54.505Z,60.52
2018-09-13T14:34:25.537Z,60.23
2018-09-13T14:36:56.514Z,59.95
2018-09-13T14:39:27.501Z,60.71
2018-09-13T14:41:58.524Z,59.63
2018-09-13T14:44:29.574Z,59.94
2018-09-13T14:47:02.450Z,59.80
2018-09-13T14:49:33.521Z,59.15
2018-09-13T14:52:04.497Z,59.62
2018-09-13T14:54:35.649Z,59.72
2018-09-13T14:57:06.590Z,59.12
2018-09-13T14:59:37.563Z,60.39
2018-09-13T15:02:08.521Z,59.16
2018-09-13T15:04:39.567Z,59.36
2018-09-13T15:07:10.531Z,59.41
2018-09-13T15:09:42.025Z,59.95
2018-09-13T15:12:13.302Z,59.21
2018-09-13T15:14:44.392Z,59.89
2018-09-13T15:17:15.626Z,60.24
2018-09-13T15:19:46.626Z,60.24
2018-09-13T15:22:17.570Z,60.40
2018-09-13T15:24:48.785Z,59.35
2018-09-13T15:27:19.730Z,60.47
2018-09-13T15:29:50.614Z,60.49
2018-09-13T15:32:21.513Z,60.10
2018-09-13T15:34:52.534Z,60.78
2018-09-13T15:37:23.616Z,60.41
2018-09-13T15:39:54.590Z,61.23
2018-09-13T15:42:25.520Z,61.50
2018-09-13T15:44:56.534Z,61.20
2018-09-13T15:47:27.501Z,60.77
2018-09-13T15:49:58.505Z,61.51
2018-09-13T15:52:29.582Z,61.27
2018-09-13T15:55:00.497Z,61.24
2018-09-13T15:57:31.493Z,60.87
2018-09-13T16:00:02.513Z,61.34
2018-09-13T16:02:33.510Z,60.48
2018-09-13T16:05:04.523Z,61.02
2018-09-13T16:07:35.530Z,60.03
2018-09-13T16:10:06.612Z,60.63
2018-09-13T16:12:37.769Z,60.45
2018-09-13T16:15:08.558Z,60.55
2018-09-13T16:17:39.520Z,60.81
2018-09-13T16:20:10.481Z,60.58
2018-09-13T16:22:41.569Z,60.50
2018-09-13T16:25:12.477Z,60.74
2018-09-13T16:27:43.563Z,60.52
2018-09-13T16:30:14.509Z,61.25
2018-09-13T16:32:45.509Z,61.01
2018-09-13T16:35:16.566Z,60.62
2018-09-13T16:37:53.339Z,59.93
2018-09-13T16:40:29.325Z,59.88
2018-09-13T16:43:05.693Z,60.33
2018-09-13T16:45:36.554Z,59.91
2018-09-13T16:48:08.234Z,59.63
2018-09-13T16:50:39.356Z,60.77
2018-09-13T16:53:10.426Z,60.37
2018-09-13T16:55:41.380Z,59.57
2018-09-13T16:58:12.522Z,60.50
2018-09-13T17:00:43.502Z,59.84
2018-09-13T17:06:01.473Z,60.25
2018-09-13T17:08:32.571Z,60.06
2018-09-13T17:11:03.563Z,60.49
2018-09-13T17:13:34.532Z,61.68
2018-09-13T17:16:05.508Z,61.58
2018-09-13T17:18:36.492Z,60.76
2018-09-13T17:21:07.545Z,61.51
2018-09-13T17:23:38.662Z,61.77
2018-09-13T17:26:09.555Z,61.90
2018-09-13T17:28:40.490Z,61.50
2018-09-13T17:31:11.783Z,62.02
2018-09-13T17:33:42.567Z,61.34
2018-09-13T17:36:13.486Z,62.01
2018-09-13T17:38:44.526Z,62.85
2018-09-13T17:41:15.539Z,62.11
2018-09-13T17:43:46.482Z,61.35
2018-09-13T17:46:17.465Z,62.64
2018-09-13T17:48:48.543Z,62.34
2018-09-13T17:51:19.490Z,62.53
2018-09-13T17:53:50.476Z,62.22
2018-09-13T17:56:21.487Z,62.99
2018-09-13T17:58:52.506Z,62.86
2018-09-13T18:01:23.545Z,62.34
2018-09-13T18:03:54.472Z,62.33
2018-09-13T18:06:25.465Z,62.59
2018-09-13T18:08:56.496Z,62.43
2018-09-13T18:11:27.491Z,62.18
2018-09-13T18:13:59.278Z,62.17
2018-09-13T18:16:30.383Z,63.28
2018-09-13T18:19:01.523Z,62.70
2018-09-13T18:21:32.530Z,63.31
2018-09-13T18:24:03.618Z,62.62
2018-09-13T18:26:34.505Z,63.15
2018-09-13T18:29:05.970Z,63.10
2018-09-13T18:31:36.899Z,63.82
2018-09-13T18:34:08.013Z,63.22
2018-09-13T18:36:39.286Z,63.59
2018-09-13T18:39:11.823Z,63.39
2018-09-13T18:41:42.670Z,63.91
2018-09-13T18:44:13.562Z,63.66
2018-09-13T18:49:30.940Z,64.94
2018-09-13T18:52:02.227Z,64.45
2018-09-13T18:54:33.509Z,64.42
2018-09-13T18:57:04.525Z,64.89
2018-09-13T18:59:35.550Z,64.39
2018-09-13T19:02:06.546Z,65.21
2018-09-13T19:04:37.517Z,64.84
2018-09-13T19:07:08.629Z,65.15
2018-09-13T19:09:39.671Z,64.37
2018-09-13T19:12:10.552Z,64.92
2018-09-13T19:14:41.549Z,64.07
2018-09-13T19:17:12.571Z,63.82
2018-09-13T19:19:43.473Z,64.79
2018-09-13T19:22:14.513Z,64.47
2018-09-13T19:24:46.286Z,64.81
2018-09-13T19:27:17.371Z,64.43
2018-09-13T19:29:48.561Z,64.87
2018-09-13T19:32:19.818Z,65.63
2018-09-13T19:34:51.824Z,66.12
2018-09-13T19:37:23.223Z,65.85
2018-09-13T19:39:53.398Z,66.84
2018-09-13T19:42:24.495Z,66.59
2018-09-13T19:44:57.255Z,66.64
2018-09-13T19:47:28.447Z,67.50
2018-09-13T19:49:59.845Z,67.85
2018-09-13T19:52:31.280Z,67.17
2018-09-13T19:55:02.466Z,67.33
2018-09-13T19:57:33.526Z,67.46
2018-09-13T20:00:04.548Z,67.96
2018-09-13T20:02:35.598Z,68.50
2018-09-13T20:05:06.698Z,68.72
2018-09-13T20:07:37.576Z,67.91
2018-09-13T20:10:08.657Z,67.83
2018-09-13T20:12:40.014Z,68.83
2018-09-13T20:15:11.428Z,68.29
2018-09-13T20:17:42.554Z,69.41
2018-09-13T20:20:13.610Z,69.41
2018-09-13T20:22:44.571Z,70.03
2018-09-13T20:25:15.887Z,69.89
2018-09-13T20:27:49.812Z,69.74
2018-09-13T20:30:20.635Z,70.35
2018-09-13T20:32:51.580Z,69.65
2018-09-13T20:35:22.545Z,70.37
2018-09-13T20:37:53.754Z,70.91
2018-09-13T20:40:24.561Z,70.97
2018-09-13T20:42:55.754Z,71.75
2018-09-13T20:45:26.598Z,72.07
2018-09-13T20:47:57.520Z,71.99
2018-09-13T20:50:28.529Z,71.92
2018-09-13T20:52:59.554Z,71.44
2018-09-13T20:55:30.488Z,72.11
2018-09-13T20:58:01.589Z,72.23
2018-09-13T21:00:33.601Z,72.76
2018-09-13T21:03:05.686Z,72.25
2018-09-13T21:05:36.610Z,72.29
2018-09-13T21:08:07.590Z,72.21
2018-09-13T21:10:38.502Z,71.60
2018-09-13T21:13:09.587Z,72.54
2018-09-13T21:15:40.547Z,71.92
2018-09-13T21:18:11.547Z,72.58
2018-09-13T21:20:42.502Z,71.86
2018-09-13T21:23:13.480Z,73.10
2018-09-13T21:25:44.584Z,73.07
2018-09-13T21:28:15.518Z,74.39
2018-09-13T21:30:46.523Z,74.44
2018-09-13T21:33:17.494Z,75.06
2018-09-13T21:35:48.553Z,75.48
2018-09-13T21:38:19.538Z,76.60
2018-09-13T21:40:50.500Z,77.14
2018-09-13T21:43:21.507Z,77.54
2018-09-13T21:45:52.539Z,78.59
2018-09-13T21:48:23.486Z,79.38
2018-09-13T21:50:54.481Z,79.73
2018-09-13T21:53:25.497Z,79.72
2018-09-13T21:55:56.522Z,79.99
2018-09-13T21:58:27.547Z,80.29
2018-09-13T22:00:58.553Z,80.29
2018-09-13T22:03:29.478Z,80.40
2018-09-13T22:06:00.538Z,81.07
2018-09-13T22:08:31.483Z,82.08
2018-09-13T22:11:02.522Z,82.58
2018-09-13T22:13:33.739Z,83.58
2018-09-13T22:16:04.654Z,82.37
2018-09-13T22:18:35.553Z,83.80
2018-09-13T22:21:06.655Z,83.21
2018-09-13T22:23:37.530Z,83.50
2018-09-13T22:26:08.627Z,83.39
2018-09-13T22:28:39.590Z,83.96
2018-09-13T22:31:10.500Z,84.53
2018-09-13T22:33:41.881Z,85.17
2018-09-13T22:36:12.897Z,84.39
2018-09-13T22:38:43.685Z,84.80
2018-09-13T22:41:14.502Z,85.22
2018-09-13T22:43:52.667Z,84.65
2018-09-13T22:46:24.437Z,85.01
2018-09-13T22:48:55.485Z,85.01
2018-09-13T22:51:26.755Z,84.85
2018-09-13T22:53:57.546Z,84.38
2018-09-13T22:56:28.529Z,84.88
2018-09-13T22:58:59.476Z,85.23
2018-09-13T23:01:30.505Z,85.24
2018-09-13T23:04:01.497Z,85.26
2018-09-13T23:06:32.502Z,85.09
2018-09-13T23:09:03.516Z,83.67
2018-09-13T23:11:34.559Z,84.03
2018-09-13T23:14:05.516Z,84.65
2018-09-13T23:16:36.683Z,84.02
2018-09-13T23:19:07.801Z,83.92
2018-09-13T23:21:39.006Z,84.19
2018-09-13T23:24:10.300Z,84.02
2018-09-13T23:26:41.364Z,84.30
2018-09-13T23:29:12.362Z,83.35
2018-09-13T23:31:43.550Z,83.40
2018-09-13T23:34:15.577Z,84.18
2018-09-13T23:36:46.493Z,83.49
2018-09-13T23:39:17.654Z,83.81
2018-09-13T23:41:48.530Z,83.30
2018-09-13T23:44:19.514Z,82.84
2018-09-13T23:46:50.535Z,83.01
2018-09-13T23:49:21.538Z,82.37
2018-09-13T23:51:52.527Z,83.61
2018-09-13T23:54:23.478Z,82.64
2018-09-13T23:56:54.515Z,82.77
2018-09-13T23:59:25.512Z,82.62
